Rio Tala, Argentina
Current Conditions -  °F | °C
As of 4:00 PM on Thursday 18 Dec 2014 (Local Time) from SADF Reporting Station
Scattered Clouds Scattered Clouds  
Wind Chill: 88°   Ceiling: Unl
Heat Index: 88°   Visibility: 6mi
Dew Point: 52°   Wind: 5mph
Humidity: 29%   Direction: 270°W
Pressure: 29.77"   Gusts: NA
Location:  33.76°S, 59.65°W
Report Text: SADF 181900Z 27004KT 9999 FEW030TCU SCT032 31/11 Q1008
Loading
Personal Weather Stations






























Interactive Weather Map New forecast layout! Learn more

10-Day Weather Forecast

Advertisements
Track Severe Weather on mobile